createdAt,value
2023-05-10T05:03:06.223Z,25.00
2023-05-10T05:04:06.152Z,25.00
2023-05-10T05:05:06.184Z,25.00
2023-05-10T05:06:07.220Z,25.00
2023-05-10T05:07:06.226Z,25.00
2023-05-10T05:08:06.245Z,25.00
2023-05-10T05:09:06.315Z,0.00
2023-05-10T05:10:07.311Z,0.00
2023-05-10T05:11:07.341Z,0.00
2023-05-10T05:12:06.414Z,0.00
2023-05-10T05:13:06.350Z,0.00
2023-05-10T05:14:07.319Z,0.00
2023-05-10T05:15:09.040Z,0.00
2023-05-10T05:16:06.453Z,0.00
2023-05-10T05:17:07.343Z,0.00
2023-05-10T05:18:06.353Z,0.00
2023-05-10T05:19:06.363Z,0.00
2023-05-10T05:20:07.346Z,0.00
2023-05-10T05:21:07.341Z,0.00
2023-05-10T05:22:06.325Z,0.00
2023-05-10T05:23:06.315Z,0.00
2023-05-10T05:24:06.302Z,0.00
2023-05-10T05:25:06.292Z,0.57
2023-05-10T05:26:07.286Z,25.51
2023-05-10T05:27:07.275Z,25.00
2023-05-10T05:28:07.316Z,26.51
2023-05-10T05:29:06.288Z,27.01
2023-05-10T05:30:07.272Z,26.46
2023-05-10T05:31:06.338Z,26.68
2023-05-10T05:32:07.313Z,26.50
2023-05-10T05:33:07.283Z,26.14
2023-05-10T05:34:07.232Z,28.22
2023-05-10T05:35:06.250Z,27.07
2023-05-10T05:36:06.227Z,27.52
2023-05-10T05:37:06.242Z,27.04
2023-05-10T05:38:07.242Z,25.06
2023-05-10T05:39:07.193Z,31.82
2023-05-10T05:40:07.172Z,26.64
2023-05-10T05:41:06.162Z,25.15
2023-05-10T05:42:06.594Z,25.00
2023-05-10T05:43:07.139Z,25.00
2023-05-10T05:44:06.149Z,28.93
2023-05-10T05:45:06.165Z,27.41
2023-05-10T05:46:07.239Z,25.53
2023-05-10T05:47:07.282Z,25.92
2023-05-10T05:48:07.376Z,26.88
2023-05-10T05:49:07.398Z,26.88
2023-05-10T05:50:07.438Z,25.55
2023-05-10T05:51:07.389Z,26.40
2023-05-10T05:52:07.556Z,27.49
2023-05-10T05:53:07.605Z,25.44
2023-05-10T05:54:07.661Z,26.28
2023-05-10T05:55:07.712Z,28.36
2023-05-10T05:56:07.786Z,28.98
2023-05-10T05:57:07.824Z,26.35
2023-05-10T05:58:07.869Z,26.57
2023-05-10T05:59:08.008Z,26.93
2023-05-10T06:00:08.043Z,28.65
2023-05-10T06:01:08.084Z,29.73
2023-05-10T06:02:08.664Z,27.66
2023-05-10T06:03:07.306Z,27.89
2023-05-10T06:04:07.393Z,27.79
2023-05-10T06:05:07.283Z,32.29
2023-05-10T06:06:08.373Z,33.41
2023-05-10T06:07:08.403Z,37.68
2023-05-10T06:08:08.419Z,39.33
2023-05-10T06:09:07.479Z,38.22
2023-05-10T06:10:08.517Z,43.69
2023-05-10T06:11:08.564Z,46.01
2023-05-10T06:12:07.606Z,47.82
2023-05-10T06:13:07.732Z,51.40
2023-05-10T06:14:08.677Z,49.54
2023-05-10T06:15:08.723Z,50.85
2023-05-10T06:16:08.719Z,48.79
2023-05-10T06:17:07.773Z,48.83
2023-05-10T06:18:08.838Z,49.57
2023-05-10T06:19:08.845Z,51.44
2023-05-10T06:20:08.860Z,51.14
2023-05-10T06:21:08.888Z,55.49
2023-05-10T06:22:07.943Z,56.07
2023-05-10T06:23:07.924Z,55.58
2023-05-10T06:24:08.938Z,54.49
2023-05-10T06:25:07.956Z,54.76
2023-05-10T06:26:08.963Z,53.66
2023-05-10T06:27:08.002Z,57.67
2023-05-10T06:28:07.994Z,66.18
2023-05-10T06:29:08.967Z,64.93
2023-05-10T06:30:13.023Z,66.34
2023-05-10T06:31:08.040Z,66.57
2023-05-10T06:32:09.085Z,66.53
2023-05-10T06:33:09.122Z,66.93
2023-05-10T06:34:07.976Z,70.57
2023-05-10T06:35:08.976Z,76.29
2023-05-10T06:36:07.997Z,69.76
2023-05-10T06:37:09.066Z,67.74
2023-05-10T06:38:08.008Z,72.60
2023-05-10T06:39:08.990Z,73.36
2023-05-10T06:40:08.008Z,75.61
2023-05-10T06:41:08.974Z,74.87
2023-05-10T06:42:08.961Z,74.63
2023-05-10T06:43:08.958Z,75.62
2023-05-10T06:44:08.961Z,75.37
2023-05-10T06:45:08.965Z,75.77
2023-05-10T06:46:08.990Z,82.26
2023-05-10T06:47:08.964Z,77.37
2023-05-10T06:48:07.984Z,81.80
2023-05-10T06:49:08.973Z,78.97
2023-05-10T06:50:07.984Z,77.71
2023-05-10T06:51:07.963Z,80.90
2023-05-10T06:52:09.145Z,83.63
2023-05-10T06:53:08.969Z,79.15
2023-05-10T06:54:09.042Z,80.79
2023-05-10T06:55:08.975Z,76.72
2023-05-10T06:56:07.971Z,77.52
2023-05-10T06:57:19.509Z,79.61
2023-05-10T06:58:08.972Z,79.95
2023-05-10T06:59:09.040Z,80.83
2023-05-10T07:00:08.076Z,83.80
2023-05-10T07:01:08.041Z,87.26
2023-05-10T07:02:09.065Z,88.08
2023-05-10T07:03:07.977Z,87.39
2023-05-10T07:04:07.935Z,89.63
2023-05-10T07:05:07.921Z,90.86
2023-05-10T07:06:13.326Z,100.94
2023-05-10T07:07:08.904Z,101.43
2023-05-10T07:08:07.893Z,103.08
2023-05-10T07:09:08.906Z,105.62
2023-05-10T07:10:08.921Z,108.49
2023-05-10T07:11:08.888Z,112.79
2023-05-10T07:12:11.054Z,118.78
2023-05-10T07:13:08.957Z,119.12
2023-05-10T07:14:08.894Z,119.47
2023-05-10T07:15:07.864Z,119.78
2023-05-10T07:16:08.938Z,121.05
2023-05-10T07:17:08.862Z,123.87
2023-05-10T07:18:08.912Z,125.62
2023-05-10T07:19:08.834Z,126.24
2023-05-10T07:20:07.823Z,117.38
2023-05-10T07:21:07.861Z,111.87
2023-05-10T07:22:07.837Z,116.66
2023-05-10T07:23:07.798Z,117.00
2023-05-10T07:24:07.799Z,121.60
2023-05-10T07:25:08.800Z,122.22
2023-05-10T07:26:08.819Z,121.31
2023-05-10T07:27:07.783Z,119.98
2023-05-10T07:28:08.764Z,118.65
2023-05-10T07:29:08.757Z,119.35
2023-05-10T07:30:08.761Z,116.99
2023-05-10T07:31:07.790Z,119.74
2023-05-10T07:32:08.811Z,117.29
2023-05-10T07:33:07.864Z,118.21
2023-05-10T07:34:08.912Z,118.70
2023-05-10T07:35:08.000Z,115.41
2023-05-10T07:36:09.001Z,108.94
2023-05-10T07:37:08.140Z,109.35
2023-05-10T07:38:08.112Z,105.96
2023-05-10T07:39:09.197Z,96.10
2023-05-10T07:40:09.244Z,88.59
2023-05-10T07:41:08.287Z,86.18
2023-05-10T07:42:09.389Z,83.36
2023-05-10T07:43:08.334Z,80.12
2023-05-10T07:44:08.321Z,79.12
2023-05-10T07:45:08.343Z,76.22
2023-05-10T07:46:08.405Z,74.76
2023-05-10T07:47:09.666Z,71.61
2023-05-10T07:48:09.530Z,73.45
2023-05-10T07:49:09.347Z,68.62
2023-05-10T07:50:09.350Z,71.97
2023-05-10T07:51:09.326Z,66.41
2023-05-10T07:52:09.664Z,63.03
2023-05-10T07:53:09.492Z,62.16
2023-05-10T07:54:09.343Z,61.05
2023-05-10T07:55:09.383Z,63.86
2023-05-10T07:56:09.413Z,63.94
2023-05-10T07:57:08.373Z,63.63
2023-05-10T07:58:09.423Z,63.02
2023-05-10T07:59:11.330Z,62.77
2023-05-10T08:00:08.347Z,62.84
2023-05-10T08:01:08.330Z,62.83
2023-05-10T08:02:08.414Z,58.35
2023-05-10T08:03:08.516Z,57.92
2023-05-10T08:04:09.390Z,55.67
2023-05-10T08:05:08.292Z,55.54
2023-05-10T08:06:09.281Z,55.11
2023-05-10T08:07:09.294Z,53.97
2023-05-10T08:08:08.279Z,54.32
2023-05-10T08:09:08.280Z,49.37
2023-05-10T08:10:09.272Z,46.32
2023-05-10T08:11:09.255Z,42.09
2023-05-10T08:12:09.255Z,42.49
2023-05-10T08:13:09.251Z,40.71
2023-05-10T08:14:09.253Z,41.13
2023-05-10T08:15:08.236Z,40.56
2023-05-10T08:16:09.256Z,38.70
2023-05-10T08:17:08.231Z,37.79
2023-05-10T08:18:08.237Z,36.93
2023-05-10T08:19:08.289Z,35.61
2023-05-10T08:20:08.202Z,34.31
2023-05-10T08:21:08.185Z,34.10
2023-05-10T08:22:09.199Z,32.80
2023-05-10T08:23:09.176Z,31.16
2023-05-10T08:24:09.163Z,30.36
2023-05-10T08:25:08.165Z,27.46
2023-05-10T08:26:09.144Z,27.15
2023-05-10T08:27:09.175Z,26.40
2023-05-10T08:28:09.894Z,25.00
2023-05-10T08:29:09.198Z,26.10
2023-05-10T08:30:08.374Z,25.36
2023-05-10T08:31:08.302Z,27.15
2023-05-10T08:32:09.360Z,25.57
2023-05-10T08:33:09.329Z,28.19
2023-05-10T08:34:09.320Z,29.25
2023-05-10T08:35:08.347Z,29.53
2023-05-10T08:36:09.398Z,28.29
2023-05-10T08:37:09.474Z,27.44
2023-05-10T08:38:08.489Z,28.25
2023-05-10T08:39:23.071Z,26.75
2023-05-10T08:40:09.469Z,27.00
2023-05-10T08:41:09.444Z,27.79
2023-05-10T08:42:08.467Z,28.31
2023-05-10T08:43:08.711Z,28.37
2023-05-10T08:44:09.424Z,27.41
2023-05-10T08:45:08.416Z,27.08
2023-05-10T08:46:09.505Z,26.10
2023-05-10T08:47:09.500Z,26.54
2023-05-10T08:48:09.525Z,26.06
2023-05-10T08:49:08.412Z,26.46
2023-05-10T08:50:08.402Z,30.42
2023-05-10T08:51:09.371Z,26.19
2023-05-10T08:52:09.371Z,27.56
2023-05-10T08:53:08.682Z,30.33
2023-05-10T08:54:09.364Z,27.47
2023-05-10T08:55:08.350Z,28.45
2023-05-10T08:56:09.344Z,29.29
2023-05-10T08:57:09.332Z,27.83
2023-05-10T08:58:09.713Z,29.39
2023-05-10T08:59:09.329Z,30.12
2023-05-10T09:00:08.299Z,27.40
2023-05-10T09:01:09.444Z,28.88
2023-05-10T09:02:09.334Z,27.39
2023-05-10T09:03:09.336Z,29.28
2023-05-10T09:04:09.332Z,27.64
2023-05-10T09:05:09.321Z,26.16
2023-05-10T09:06:08.266Z,29.22
2023-05-10T09:07:08.264Z,27.33
2023-05-10T09:08:09.272Z,25.30
2023-05-10T09:09:09.255Z,25.00
2023-05-10T09:10:09.249Z,27.10
2023-05-10T09:11:09.245Z,28.89
2023-05-10T09:12:08.251Z,25.23
2023-05-10T09:13:09.319Z,28.25
2023-05-10T09:14:09.240Z,28.00
2023-05-10T09:15:08.219Z,31.65
2023-05-10T09:16:20.428Z,26.18
2023-05-10T09:17:09.347Z,26.45
2023-05-10T09:18:08.290Z,26.93
2023-05-10T09:19:08.411Z,27.80
2023-05-10T09:20:09.173Z,26.54
2023-05-10T09:21:09.179Z,28.45
2023-05-10T09:22:08.157Z,25.23
2023-05-10T09:23:08.171Z,28.21
2023-05-10T09:24:09.167Z,29.67
2023-05-10T09:25:09.159Z,28.30
2023-05-10T09:26:08.150Z,25.90
2023-05-10T09:27:08.125Z,27.15
2023-05-10T09:28:09.116Z,28.82
2023-05-10T09:29:08.111Z,27.46
2023-05-10T09:30:09.098Z,30.33
2023-05-10T09:31:08.156Z,26.66
2023-05-10T09:32:09.110Z,27.38
2023-05-10T09:33:08.160Z,27.22
2023-05-10T09:34:09.111Z,25.03
2023-05-10T09:35:09.062Z,27.23
2023-05-10T09:36:09.071Z,25.47
2023-05-10T09:37:08.053Z,27.85
2023-05-10T09:38:09.069Z,29.25
2023-05-10T09:39:08.051Z,28.62
2023-05-10T09:40:09.047Z,26.56
2023-05-10T09:41:09.040Z,29.92
2023-05-10T09:42:08.038Z,28.79
2023-05-10T09:43:09.020Z,25.04
2023-05-10T09:44:09.012Z,25.00
2023-05-10T09:45:09.004Z,27.41
2023-05-10T09:46:09.017Z,28.47
2023-05-10T09:47:09.000Z,27.23
2023-05-10T09:48:09.278Z,26.64
2023-05-10T09:49:08.983Z,27.79
2023-05-10T09:50:07.985Z,25.00
2023-05-10T09:51:07.965Z,30.95
2023-05-10T09:52:09.033Z,36.29
2023-05-10T09:53:08.216Z,41.12
2023-05-10T09:54:07.971Z,43.94
2023-05-10T09:55:08.979Z,45.38
2023-05-10T09:56:08.957Z,41.96
2023-05-10T09:57:07.957Z,46.89
2023-05-10T09:58:07.936Z,49.01
2023-05-10T09:59:08.947Z,49.71
2023-05-10T10:00:08.994Z,47.19
2023-05-10T10:01:08.931Z,48.42
2023-05-10T10:02:08.927Z,46.64
2023-05-10T10:03:08.013Z,42.70
2023-05-10T10:04:07.887Z,48.75
2023-05-10T10:05:08.926Z,48.02
2023-05-10T10:06:15.989Z,46.10
2023-05-10T10:07:08.879Z,46.38
2023-05-10T10:08:08.853Z,46.99
2023-05-10T10:09:08.921Z,46.53
2023-05-10T10:10:07.819Z,45.53
2023-05-10T10:11:07.833Z,44.54
2023-05-10T10:12:08.810Z,41.91
2023-05-10T10:13:08.826Z,42.23
2023-05-10T10:14:07.800Z,43.64
2023-05-10T10:15:07.809Z,45.89
2023-05-10T10:16:08.840Z,47.28
2023-05-10T10:17:09.008Z,45.70
2023-05-10T10:18:07.836Z,44.79
2023-05-10T10:19:07.771Z,47.92
2023-05-10T10:20:08.725Z,49.23
2023-05-10T10:21:08.976Z,48.45
2023-05-10T10:22:09.014Z,45.53
2023-05-10T10:23:08.024Z,45.78
2023-05-10T10:24:08.029Z,45.70
2023-05-10T10:25:09.018Z,45.07
2023-05-10T10:26:09.029Z,43.03
2023-05-10T10:27:08.047Z,44.06
2023-05-10T10:28:09.043Z,43.09
2023-05-10T10:29:09.041Z,39.75
2023-05-10T10:30:09.039Z,41.29
2023-05-10T10:31:09.085Z,42.26
2023-05-10T10:32:08.069Z,42.07
2023-05-10T10:33:16.864Z,43.56
2023-05-10T10:34:09.059Z,43.79
2023-05-10T10:35:09.068Z,43.86
2023-05-10T10:36:08.053Z,44.42
2023-05-10T10:37:09.040Z,48.43
2023-05-10T10:38:08.052Z,47.18
2023-05-10T10:39:09.026Z,45.56
2023-05-10T10:40:08.025Z,48.98
2023-05-10T10:41:09.018Z,43.59
2023-05-10T10:42:08.014Z,44.06
2023-05-10T10:43:09.000Z,50.21
2023-05-10T10:44:09.241Z,56.03
2023-05-10T10:45:08.989Z,55.75
2023-05-10T10:46:08.981Z,57.77
2023-05-10T10:47:09.049Z,51.38
2023-05-10T10:48:07.984Z,59.11
2023-05-10T10:49:08.951Z,56.14
2023-05-10T10:50:08.964Z,65.24
2023-05-10T10:51:08.152Z,73.93
2023-05-10T10:52:08.947Z,76.70
2023-05-10T10:53:08.012Z,76.66
2023-05-10T10:54:08.974Z,73.25
2023-05-10T10:55:08.911Z,75.98
2023-05-10T10:56:07.926Z,72.01
2023-05-10T10:57:07.907Z,73.97
2023-05-10T10:58:07.911Z,70.40
2023-05-10T10:59:07.895Z,76.85
2023-05-10T11:00:08.872Z,72.19
2023-05-10T11:01:08.967Z,75.90
2023-05-10T11:02:08.884Z,75.18
2023-05-10T11:03:08.009Z,75.50
2023-05-10T11:04:08.920Z,79.86
2023-05-10T11:05:07.848Z,80.33
2023-05-10T11:06:07.838Z,80.27
2023-05-10T11:07:08.833Z,82.90
2023-05-10T11:08:08.816Z,86.42
2023-05-10T11:09:08.828Z,93.96
2023-05-10T11:10:07.841Z,92.35
2023-05-10T11:11:07.845Z,95.64
2023-05-10T11:12:07.854Z,94.14
2023-05-10T11:13:08.942Z,93.08
2023-05-10T11:14:08.974Z,93.46
2023-05-10T11:15:09.047Z,94.56
2023-05-10T11:16:09.120Z,96.31
2023-05-10T11:17:09.216Z,95.66
2023-05-10T11:18:09.201Z,94.41
2023-05-10T11:19:08.356Z,93.97
2023-05-10T11:20:09.245Z,97.61
2023-05-10T11:21:08.287Z,100.63
2023-05-10T11:22:09.310Z,96.06
2023-05-10T11:23:08.338Z,99.59
2023-05-10T11:24:09.374Z,94.79
2023-05-10T11:25:09.785Z,93.38
2023-05-10T11:26:09.435Z,97.15
2023-05-10T11:27:09.468Z,98.44
2023-05-10T11:28:08.494Z,100.12
2023-05-10T11:29:09.539Z,104.74
2023-05-10T11:30:09.510Z,107.75
2023-05-10T11:31:08.556Z,111.58
2023-05-10T11:32:09.547Z,116.69
2023-05-10T11:33:09.806Z,120.04
2023-05-10T11:34:08.628Z,119.29
2023-05-10T11:35:08.659Z,120.20
2023-05-10T11:36:08.697Z,119.25
2023-05-10T11:37:09.774Z,121.36
2023-05-10T11:38:08.829Z,123.40
2023-05-10T11:39:10.262Z,121.61
2023-05-10T11:40:09.974Z,120.31
2023-05-10T11:41:10.037Z,119.17
2023-05-10T11:42:10.074Z,119.36
2023-05-10T11:43:09.158Z,120.39
2023-05-10T11:44:10.194Z,119.67
2023-05-10T11:45:10.233Z,115.85
2023-05-10T11:46:10.319Z,110.09
2023-05-10T11:47:09.336Z,110.23
2023-05-10T11:48:09.422Z,102.86
2023-05-10T11:49:10.500Z,97.59
2023-05-10T11:50:09.407Z,105.05
2023-05-10T11:51:09.392Z,102.15
2023-05-10T11:52:09.384Z,93.68
2023-05-10T11:53:09.395Z,89.49
2023-05-10T11:54:10.464Z,85.72
2023-05-10T11:55:09.382Z,82.85
2023-05-10T11:56:10.386Z,83.28
2023-05-10T11:57:10.401Z,82.38
2023-05-10T11:58:09.364Z,79.95
2023-05-10T11:59:10.388Z,77.63
2023-05-10T12:00:10.364Z,75.38
2023-05-10T12:01:09.367Z,73.34
2023-05-10T12:02:10.360Z,70.44
2023-05-10T12:03:10.483Z,74.24
2023-05-10T12:04:10.455Z,74.20
2023-05-10T12:05:10.412Z,84.61
2023-05-10T12:06:10.375Z,88.29
2023-05-10T12:07:10.373Z,98.37
2023-05-10T12:08:10.371Z,99.73
2023-05-10T12:09:10.444Z,110.12
2023-05-10T12:10:10.388Z,105.61
2023-05-10T12:11:10.456Z,107.67
2023-05-10T12:12:10.518Z,117.33
2023-05-10T12:13:09.608Z,121.27
2023-05-10T12:14:10.646Z,124.28
2023-05-10T12:15:09.688Z,120.15
2023-05-10T12:16:10.759Z,114.66
2023-05-10T12:17:09.825Z,117.44
2023-05-10T12:18:10.895Z,126.99
2023-05-10T12:19:11.172Z,123.21
2023-05-10T12:20:09.992Z,127.53
2023-05-10T12:21:11.033Z,136.51
2023-05-10T12:22:11.089Z,132.50
2023-05-10T12:23:11.169Z,140.32
2023-05-10T12:24:10.251Z,133.69
2023-05-10T12:25:11.292Z,135.91
2023-05-10T12:26:10.352Z,144.56
2023-05-10T12:27:10.407Z,160.89
2023-05-10T12:28:11.452Z,162.99
2023-05-10T12:29:10.555Z,161.33
2023-05-10T12:30:11.609Z,175.96
2023-05-10T12:31:10.601Z,180.52
2023-05-10T12:32:10.770Z,170.98
2023-05-10T12:33:10.846Z,175.87
2023-05-10T12:34:10.765Z,164.53
2023-05-10T12:35:11.787Z,162.18
2023-05-10T12:36:11.834Z,170.38
2023-05-10T12:37:10.897Z,152.41
2023-05-10T12:38:11.929Z,152.54
2023-05-10T12:39:10.990Z,158.11
2023-05-10T12:40:11.015Z,153.39
2023-05-10T12:41:12.093Z,143.39
2023-05-10T12:42:11.205Z,146.98
2023-05-10T12:43:11.146Z,143.79
2023-05-10T12:44:12.255Z,146.06
2023-05-10T12:45:12.237Z,141.21
2023-05-10T12:46:11.327Z,135.58
2023-05-10T12:47:12.317Z,138.37
2023-05-10T12:48:11.423Z,140.05
2023-05-10T12:49:11.453Z,145.88
2023-05-10T12:50:11.507Z,137.30
2023-05-10T12:51:11.493Z,135.93
2023-05-10T12:52:11.554Z,125.67
2023-05-10T12:53:12.585Z,141.33
2023-05-10T12:54:12.629Z,127.90
2023-05-10T12:55:12.670Z,116.30
2023-05-10T12:56:12.701Z,115.28
2023-05-10T12:57:11.726Z,118.09
2023-05-10T12:58:15.782Z,109.11
2023-05-10T12:59:12.852Z,109.36
2023-05-10T13:00:12.786Z,109.41
2023-05-10T13:01:11.796Z,112.77
2023-05-10T13:02:12.744Z,107.15
2023-05-10T13:03:12.750Z,114.03
2023-05-10T13:04:12.858Z,108.09
2023-05-10T13:05:12.766Z,109.23
2023-05-10T13:06:11.715Z,110.68
2023-05-10T13:07:12.721Z,114.03
2023-05-10T13:08:11.702Z,113.47
2023-05-10T13:09:11.718Z,118.87
2023-05-10T13:10:12.697Z,111.52
2023-05-10T13:11:11.689Z,107.00
2023-05-10T13:12:12.678Z,116.81
2023-05-10T13:13:11.680Z,108.92
2023-05-10T13:14:12.737Z,108.84
2023-05-10T13:15:11.781Z,115.60
2023-05-10T13:16:11.809Z,119.99
2023-05-10T13:17:12.881Z,115.09
2023-05-10T13:18:11.853Z,116.61
2023-05-10T13:19:11.949Z,121.89
2023-05-10T13:20:11.923Z,127.69
2023-05-10T13:21:12.965Z,133.95
2023-05-10T13:22:12.980Z,130.68
2023-05-10T13:23:12.012Z,123.11
2023-05-10T13:24:12.042Z,134.99
2023-05-10T13:25:13.072Z,134.31
2023-05-10T13:26:13.107Z,144.52
2023-05-10T13:27:12.154Z,154.45
2023-05-10T13:28:13.180Z,130.61
2023-05-10T13:29:13.211Z,130.78
2023-05-10T13:30:13.271Z,122.06
2023-05-10T13:31:13.298Z,120.93
2023-05-10T13:32:13.327Z,118.15
2023-05-10T13:33:13.364Z,112.67
2023-05-10T13:34:12.354Z,114.34
2023-05-10T13:35:13.374Z,119.22
2023-05-10T13:36:13.400Z,117.58
2023-05-10T13:37:12.428Z,117.02
2023-05-10T13:38:12.452Z,115.30
2023-05-10T13:39:13.477Z,115.63
2023-05-10T13:40:12.599Z,124.08
2023-05-10T13:41:12.511Z,126.05
2023-05-10T13:42:12.538Z,117.30
2023-05-10T13:43:13.574Z,127.22
2023-05-10T13:44:13.587Z,127.17
2023-05-10T13:45:13.608Z,127.38
2023-05-10T13:46:13.711Z,135.16
2023-05-10T13:47:13.675Z,140.20
2023-05-10T13:48:13.738Z,142.07
2023-05-10T13:49:13.754Z,147.85
2023-05-10T13:50:12.828Z,150.00
2023-05-10T13:51:12.845Z,154.45
2023-05-10T13:52:13.865Z,153.49
2023-05-10T13:53:13.911Z,153.17
2023-05-10T13:54:13.918Z,146.25
2023-05-10T13:55:12.986Z,133.24
2023-05-10T13:56:13.988Z,133.06
2023-05-10T13:57:14.056Z,109.40
2023-05-10T13:58:14.053Z,98.74
2023-05-10T13:59:14.095Z,82.39
2023-05-10T14:00:14.146Z,67.85
2023-05-10T14:01:14.199Z,54.33
2023-05-10T14:02:13.367Z,42.63
2023-05-10T14:03:13.377Z,36.92
2023-05-10T14:04:13.336Z,40.40
2023-05-10T14:05:14.402Z,29.16
2023-05-10T14:06:13.416Z,25.00
2023-05-10T14:07:14.471Z,28.33
2023-05-10T14:08:14.525Z,30.83
2023-05-10T14:09:14.592Z,35.05
2023-05-10T14:10:14.648Z,31.90
2023-05-10T14:11:14.706Z,31.34
2023-05-10T14:12:14.905Z,27.44
2023-05-10T14:13:14.842Z,25.00
2023-05-10T14:14:14.908Z,25.00
2023-05-10T14:15:15.147Z,25.16
2023-05-10T14:16:14.053Z,26.53
2023-05-10T14:17:14.009Z,25.97
2023-05-10T14:18:15.013Z,25.45
2023-05-10T14:19:15.009Z,25.91
2023-05-10T14:20:15.051Z,25.00
2023-05-10T14:21:14.007Z,42.54
2023-05-10T14:22:15.015Z,61.23
2023-05-10T14:23:14.010Z,66.26
2023-05-10T14:24:14.026Z,67.85
2023-05-10T14:25:15.292Z,72.61
2023-05-10T14:26:14.026Z,75.57
2023-05-10T14:27:14.031Z,80.10
2023-05-10T14:28:14.061Z,79.29
2023-05-10T14:29:14.046Z,79.41
2023-05-10T14:30:15.063Z,60.72
2023-05-10T14:31:15.074Z,40.03
2023-05-10T14:32:14.185Z,22.93
2023-05-10T14:33:15.150Z,25.99
2023-05-10T14:34:15.195Z,27.01
2023-05-10T14:35:17.612Z,26.72
2023-05-10T14:36:15.215Z,26.72
2023-05-10T14:37:15.194Z,23.74
2023-05-10T14:38:15.174Z,16.92
2023-05-10T14:39:14.199Z,16.33
2023-05-10T14:40:15.178Z,12.09
2023-05-10T14:41:14.154Z,25.58
2023-05-10T14:42:14.170Z,25.00
2023-05-10T14:43:15.150Z,25.00
2023-05-10T14:44:15.138Z,25.00
2023-05-10T14:45:14.149Z,27.97
2023-05-10T14:46:14.125Z,27.93
2023-05-10T14:47:14.125Z,25.00
2023-05-10T14:48:14.117Z,26.32
2023-05-10T14:49:15.103Z,29.26
2023-05-10T14:50:21.689Z,26.14
2023-05-10T14:51:15.095Z,26.28
2023-05-10T14:52:15.099Z,18.48
2023-05-10T14:53:15.073Z,13.65
2023-05-10T14:54:14.068Z,4.54
2023-05-10T14:55:15.225Z,9.24
2023-05-10T14:56:15.056Z,28.69
2023-05-10T14:57:14.046Z,44.94
2023-05-10T14:58:15.043Z,32.63
2023-05-10T14:59:15.043Z,24.94
2023-05-10T15:00:14.043Z,25.00
2023-05-10T15:01:15.106Z,27.73
2023-05-10T15:02:14.120Z,29.76
2023-05-10T15:03:14.240Z,32.31
2023-05-10T15:04:14.128Z,50.38
2023-05-10T15:05:15.362Z,59.78
2023-05-10T15:06:15.133Z,44.28
2023-05-10T15:07:14.119Z,39.06
2023-05-10T15:08:14.130Z,32.76
2023-05-10T15:09:15.108Z,33.21
2023-05-10T15:10:14.115Z,25.47
2023-05-10T15:11:15.093Z,29.68
2023-05-10T15:12:15.084Z,37.93
2023-05-10T15:13:14.111Z,38.76
2023-05-10T15:14:14.135Z,38.02
2023-05-10T15:15:14.326Z,38.16
2023-05-10T15:16:15.293Z,40.69
2023-05-10T15:17:14.301Z,37.91
2023-05-10T15:18:14.355Z,41.09
2023-05-10T15:19:14.438Z,50.98
2023-05-10T15:20:14.466Z,66.73
2023-05-10T15:21:15.479Z,75.89
2023-05-10T15:22:15.511Z,94.28
2023-05-10T15:23:14.493Z,101.30
2023-05-10T15:24:15.595Z,112.46
2023-05-10T15:25:14.566Z,122.13
2023-05-10T15:26:15.538Z,128.80
2023-05-10T15:27:15.556Z,137.19
2023-05-10T15:28:14.548Z,140.24
2023-05-10T15:29:15.602Z,147.67
2023-05-10T16:41:05.730Z,25.00
2023-05-10T16:42:06.727Z,25.00
